Time;durP1;ratioP1;P1;durP2;ratioP2;P2;SDS_P1;SDS_P2;PMS_P1;PMS_P2;Temp;Humidity;BMP_temperature;BMP_pressure;BME280_temperature;BME280_humidity;BME280_pressure;Samples;Min_cycle;Max_cycle;Signal;HPM_P1;HPM_P2
2022/11/14 00:02:10;;;;;;;;;;;;;;;10.64;61.83;95401.94;5042953;23;20022;-68
2022/11/14 00:04:35;;;;;;;;;;;;;;;10.71;62.17;95414.84;5052916;28;20017;-68
2022/11/14 00:07:01;;;;;;;;;;;;;;;10.77;62.05;95414.44;5052638;28;20049;-68
2022/11/14 00:09:26;;;;;;;;;;;;;;;10.66;61.38;95405.88;5045802;28;20005;-67
2022/11/14 00:11:52;;;;;;;;;;;;;;;10.67;62.00;95401.34;5032400;28;20568;-68
2022/11/14 00:14:17;;;;;;;;;;;;;;;10.64;61.31;95400.06;5031518;28;20063;-67
2022/11/14 00:16:42;;;;;;;;;;;;;;;10.59;61.27;95399.38;5032032;28;20006;-67
2022/11/14 00:19:07;;;;;;;;;;;;;;;10.58;61.25;95397.81;5032085;28;20010;-67
2022/11/14 00:21:33;;;;;;;;;;;;;;;10.59;61.36;95384.19;5030684;28;20095;-67
2022/11/14 00:23:58;;;;;;;;;;;;;;;10.64;61.54;95383.31;5031412;28;20021;-67
2022/11/14 00:26:23;;;;;;;;;;;;;;;9.08;64.76;95389.22;5030748;28;20013;-68
2022/11/14 00:28:48;;;;;;;;;;;;;;;9.47;63.64;95374.81;5031911;28;20116;-68
2022/11/14 00:31:13;;;;;;;;;;;;;;;9.43;64.72;95371.19;5032483;28;20381;-67
2022/11/14 00:33:39;;;;;;;;;;;;;;;9.60;64.09;95374.06;5030844;28;20032;-68
2022/11/14 00:36:04;;;;;;;;;;;;;;;9.75;64.04;95365.84;5030684;28;20014;-68
2022/11/14 00:38:29;;;;;;;;;;;;;;;9.84;63.80;95369.41;5032340;28;20006;-67
2022/11/14 00:40:55;;;;;;;;;;;;;;;9.81;63.03;95372.63;5029598;28;20489;-68
2022/11/14 00:43:20;;;;;;;;;;;;;;;9.83;63.63;95361.75;5031709;28;20014;-67
2022/11/14 00:45:45;;;;;;;;;;;;;;;9.92;63.52;95364.47;5030390;28;20009;-68
2022/11/14 00:48:11;;;;;;;;;;;;;;;10.04;62.90;95383.41;5032038;28;20057;-67
2022/11/14 00:50:36;;;;;;;;;;;;;;;10.09;63.10;95399.25;5030645;28;20064;-68
2022/11/14 00:53:02;;;;;;;;;;;;;;;10.20;63.14;95402.53;5031368;28;20017;-67
2022/11/14 00:55:27;;;;;;;;;;;;;;;10.04;62.57;95399.34;5031026;28;20037;-68
2022/11/14 00:57:53;;;;;;;;;;;;;;;9.81;62.33;95399.19;5031855;28;20473;-68
2022/11/14 01:00:18;;;;;;;;;;;;;;;10.01;62.45;95397.28;5032158;28;20006;-68
2022/11/14 01:02:43;;;;;;;;;;;;;;;10.07;62.19;95394.22;5031401;28;20014;-71
2022/11/14 01:05:08;;;;;;;;;;;;;;;10.12;62.34;95396.00;5032546;28;20014;-67
2022/11/14 01:07:34;;;;;;;;;;;;;;;10.13;62.21;95393.06;5029252;28;20101;-67
2022/11/14 01:09:59;;;;;;;;;;;;;;;10.16;61.60;95399.66;5031765;28;20493;-67
2022/11/14 01:12:24;;;;;;;;;;;;;;;10.21;61.91;95404.88;5031464;28;20013;-67
2022/11/14 01:14:50;;;;;;;;;;;;;;;10.23;61.44;95402.69;5031219;28;20021;-67
2022/11/14 01:17:15;;;;;;;;;;;;;;;10.19;61.23;95395.63;5030917;28;20018;-67
2022/11/14 01:19:40;;;;;;;;;;;;;;;9.96;60.50;95402.69;5031546;28;20076;-67
2022/11/14 01:22:05;;;;;;;;;;;;;;;9.98;61.47;95400.50;5030168;28;20060;-67
2022/11/14 01:24:31;;;;;;;;;;;;;;;9.00;63.24;95397.81;5030825;28;20005;-67
2022/11/14 01:26:56;;;;;;;;;;;;;;;9.02;64.29;95396.47;5030874;28;20425;-67
2022/11/14 01:29:22;;;;;;;;;;;;;;;8.31;65.32;95410.59;5031252;28;20006;-67
2022/11/14 01:31:47;;;;;;;;;;;;;;;8.57;65.57;95411.13;5031407;28;20365;-67
2022/11/14 01:34:12;;;;;;;;;;;;;;;8.85;65.00;95412.06;5031039;28;20054;-67
2022/11/14 01:36:38;;;;;;;;;;;;;;;9.11;64.78;95410.69;5029734;28;20014;-67
2022/11/14 01:39:03;;;;;;;;;;;;;;;9.31;63.94;95414.09;5031122;28;20482;-67
2022/11/14 01:41:28;;;;;;;;;;;;;;;8.85;63.75;95402.28;5031159;28;20006;-67
2022/11/14 01:43:53;;;;;;;;;;;;;;;6.77;70.49;95408.44;5029646;28;20014;-67
2022/11/14 01:46:25;;;;;;;;;;;;;;;7.13;69.34;95397.63;5029304;28;20056;-67
2022/11/14 01:48:55;;;;;;;;;;;;;;;6.85;70.75;95403.63;5030411;28;20522;-68
2022/11/14 01:51:27;;;;;;;;;;;;;;;6.16;73.99;95392.06;5030867;28;20014;-67
2022/11/14 01:53:54;;;;;;;;;;;;;;;6.14;74.76;95392.31;5030788;28;20006;-67
2022/11/14 01:56:26;;;;;;;;;;;;;;;6.36;75.09;95391.97;5030670;28;20486;-67
2022/11/14 01:58:53;;;;;;;;;;;;;;;5.46;76.63;95394.53;5030126;28;20014;-68
2022/11/14 02:01:18;;;;;;;;;;;;;;;5.99;76.13;95382.59;5029273;28;20021;-67
2022/11/14 02:03:47;;;;;;;;;;;;;;;5.96;76.11;95377.06;5030575;28;20005;-67
2022/11/14 02:06:14;;;;;;;;;;;;;;;6.08;75.69;95382.81;5030402;28;20124;-67
2022/11/14 02:08:39;;;;;;;;;;;;;;;5.92;75.91;95376.78;5030346;28;20474;-68
2022/11/14 02:11:04;;;;;;;;;;;;;;;5.75;77.12;95371.00;5029938;28;20012;-66
2022/11/14 02:13:30;;;;;;;;;;;;;;;6.28;75.50;95363.47;5030787;28;20462;-68
2022/11/14 02:15:55;;;;;;;;;;;;;;;6.06;76.35;95361.19;5030066;28;20016;-68
2022/11/14 02:18:20;;;;;;;;;;;;;;;6.73;75.10;95359.81;5030523;28;20045;-67
2022/11/14 02:20:46;;;;;;;;;;;;;;;6.37;75.35;95363.69;5029641;28;20018;-68
2022/11/14 02:23:11;;;;;;;;;;;;;;;6.46;75.48;95364.72;5030513;28;20006;-68
2022/11/14 02:25:37;;;;;;;;;;;;;;;6.94;74.03;95362.31;5030526;28;20006;-68
2022/11/14 02:28:03;;;;;;;;;;;;;;;6.97;73.41;95361.78;5034491;28;20010;-68
2022/11/14 02:30:28;;;;;;;;;;;;;;;7.60;73.00;95353.84;5050721;28;20355;-67
2022/11/14 02:32:53;;;;;;;;;;;;;;;7.13;73.37;95355.31;5050316;28;20001;-68
2022/11/14 02:35:19;;;;;;;;;;;;;;;6.83;74.67;95350.25;5049072;28;20052;-67
2022/11/14 02:37:44;;;;;;;;;;;;;;;6.25;76.29;95343.69;5048301;28;20006;-67
2022/11/14 02:40:10;;;;;;;;;;;;;;;6.97;74.76;95337.97;5030561;28;20087;-67
2022/11/14 02:42:35;;;;;;;;;;;;;;;7.69;72.93;95359.34;5030188;28;20006;-68
2022/11/14 02:45:00;;;;;;;;;;;;;;;8.08;72.22;95364.47;5030133;28;20490;-67
2022/11/14 02:47:26;;;;;;;;;;;;;;;8.42;71.30;95359.06;5028553;28;20684;-67
2022/11/14 02:49:51;;;;;;;;;;;;;;;8.71;70.67;95358.97;5029500;28;20449;-67
2022/11/14 02:52:17;;;;;;;;;;;;;;;8.95;69.53;95348.28;5029071;28;20006;-67
2022/11/14 02:54:42;;;;;;;;;;;;;;;9.12;69.27;95347.78;5029775;28;20013;-67
2022/11/14 02:57:07;;;;;;;;;;;;;;;9.20;68.74;95348.97;5029685;28;20014;-68
2022/11/14 02:59:32;;;;;;;;;;;;;;;9.28;67.54;95346.44;5030153;28;20002;-68
2022/11/14 03:01:58;;;;;;;;;;;;;;;9.36;66.83;95337.03;5028513;28;20024;-68
2022/11/14 03:04:23;;;;;;;;;;;;;;;9.45;66.03;95326.53;5028487;28;20016;-68
2022/11/14 03:06:48;;;;;;;;;;;;;;;9.47;65.55;95321.72;5027844;28;20013;-68
2022/11/14 03:09:13;;;;;;;;;;;;;;;9.49;65.19;95314.25;5028882;28;20085;-67
2022/11/14 03:11:38;;;;;;;;;;;;;;;9.23;64.48;95322.63;5029467;28;20517;-67
2022/11/14 03:14:04;;;;;;;;;;;;;;;8.90;64.34;95321.03;5029631;28;20387;-67
2022/11/14 03:16:29;;;;;;;;;;;;;;;9.14;64.79;95321.72;5029579;28;20625;-68
2022/11/14 03:18:54;;;;;;;;;;;;;;;9.29;65.17;95329.44;5029407;28;20371;-68
2022/11/14 03:21:20;;;;;;;;;;;;;;;9.34;64.93;95326.69;5028932;28;20045;-67
2022/11/14 03:23:45;;;;;;;;;;;;;;;9.45;64.39;95329.19;5029590;28;20052;-68
2022/11/14 03:26:11;;;;;;;;;;;;;;;9.38;63.17;95322.38;5029423;28;20412;-68
2022/11/14 03:28:37;;;;;;;;;;;;;;;9.40;63.23;95308.03;5028953;28;20017;-68
2022/11/14 03:31:03;;;;;;;;;;;;;;;9.41;63.95;95302.41;5029534;28;20013;-67
2022/11/14 03:33:28;;;;;;;;;;;;;;;9.34;63.59;95294.84;5028203;28;20143;-67
2022/11/14 03:35:53;;;;;;;;;;;;;;;9.31;63.42;95290.09;5027759;28;20014;-67
2022/11/14 03:38:21;;;;;;;;;;;;;;;9.19;63.51;95284.47;5029806;28;20013;-67
2022/11/14 03:40:47;;;;;;;;;;;;;;;9.09;63.98;95290.75;5029360;28;20006;-67
2022/11/14 03:43:12;;;;;;;;;;;;;;;9.13;63.82;95317.50;5029444;28;20113;-67
2022/11/14 03:45:38;;;;;;;;;;;;;;;8.72;63.91;95341.97;5028717;28;20105;-67
2022/11/14 03:48:04;;;;;;;;;;;;;;;9.01;64.05;95335.75;5029496;28;20104;-67
2022/11/14 03:50:29;;;;;;;;;;;;;;;9.19;63.81;95328.81;5028116;28;20081;-67
2022/11/14 03:52:54;;;;;;;;;;;;;;;8.58;63.56;95325.19;5029180;28;20089;-67
2022/11/14 03:55:20;;;;;;;;;;;;;;;7.74;66.68;95328.31;5028985;28;20006;-67
2022/11/14 03:57:45;;;;;;;;;;;;;;;7.55;67.71;95344.09;5027692;28;20096;-67
2022/11/14 04:00:11;;;;;;;;;;;;;;;8.22;67.04;95336.22;5029963;28;20013;-67
2022/11/14 04:02:36;;;;;;;;;;;;;;;8.53;66.09;95341.19;5031321;28;20548;-66
2022/11/14 04:05:02;;;;;;;;;;;;;;;8.73;65.39;95346.19;5032643;28;20017;-66
2022/11/14 04:07:27;;;;;;;;;;;;;;;8.87;64.61;95337.53;5032511;28;20010;-67
2022/11/14 04:09:52;;;;;;;;;;;;;;;9.00;64.21;95340.22;5032535;28;20046;-66
2022/11/14 04:12:17;;;;;;;;;;;;;;;9.10;63.33;95326.03;5031495;28;20415;-66
2022/11/14 04:14:43;;;;;;;;;;;;;;;8.75;62.65;95328.16;5032651;28;20013;-66
2022/11/14 04:17:08;;;;;;;;;;;;;;;8.37;64.07;95331.84;5031195;28;20013;-65
2022/11/14 04:19:33;;;;;;;;;;;;;;;8.66;64.04;95350.31;5032492;28;20378;-68
2022/11/14 04:21:59;;;;;;;;;;;;;;;8.81;64.02;95345.56;5030799;28;20014;-70
2022/11/14 04:24:24;;;;;;;;;;;;;;;8.95;64.08;95337.66;5031205;28;20011;-69
2022/11/14 04:26:49;;;;;;;;;;;;;;;9.07;63.48;95335.38;5032218;28;20012;-70
2022/11/14 04:29:14;;;;;;;;;;;;;;;9.16;63.51;95322.22;5031815;28;20105;-71
2022/11/14 04:31:39;;;;;;;;;;;;;;;9.21;62.48;95308.84;5032460;28;20053;-70
2022/11/14 04:34:05;;;;;;;;;;;;;;;9.04;62.52;95335.16;5032319;28;20037;-70
2022/11/14 04:36:30;;;;;;;;;;;;;;;8.88;63.02;95331.16;5032034;28;20006;-72
2022/11/14 04:38:55;;;;;;;;;;;;;;;8.75;64.44;95322.84;5031800;28;20010;-72
2022/11/14 04:41:20;;;;;;;;;;;;;;;8.59;64.11;95314.28;5032258;28;20417;-71
2022/11/14 04:43:46;;;;;;;;;;;;;;;8.54;64.73;95306.41;5030722;28;20478;-72
2022/11/14 04:46:11;;;;;;;;;;;;;;;8.48;65.41;95312.88;5030587;28;20504;-72
2022/11/14 04:48:36;;;;;;;;;;;;;;;8.58;65.23;95310.06;5031907;28;20068;-67
2022/11/14 04:51:02;;;;;;;;;;;;;;;8.69;64.10;95309.94;5030044;28;20013;-69
2022/11/14 04:53:27;;;;;;;;;;;;;;;8.57;64.23;95316.47;5031968;28;20010;-68
2022/11/14 04:55:52;;;;;;;;;;;;;;;8.74;63.75;95315.94;5030449;28;20478;-69
2022/11/14 04:58:18;;;;;;;;;;;;;;;8.84;63.70;95323.75;5031915;28;20013;-68
2022/11/14 05:00:43;;;;;;;;;;;;;;;9.02;63.48;95332.78;5031732;28;20006;-68
2022/11/14 05:03:09;;;;;;;;;;;;;;;9.14;63.02;95321.72;5031128;28;20013;-67
2022/11/14 05:05:34;;;;;;;;;;;;;;;9.18;63.10;95317.41;5031224;28;20013;-68
2022/11/14 05:07:59;;;;;;;;;;;;;;;9.25;62.68;95317.81;5031651;28;20067;-67
2022/11/14 05:10:24;;;;;;;;;;;;;;;9.28;62.02;95313.81;5031795;28;20006;-68
2022/11/14 05:12:53;;;;;;;;;;;;;;;9.31;62.67;95316.66;5030859;28;20016;-67
2022/11/14 05:15:19;;;;;;;;;;;;;;;9.33;61.77;95311.84;5031188;28;20056;-67
2022/11/14 05:17:44;;;;;;;;;;;;;;;9.37;61.76;95318.16;5031486;28;20010;-67
2022/11/14 05:20:10;;;;;;;;;;;;;;;9.42;61.30;95316.47;5031450;28;20016;-67
2022/11/14 05:22:35;;;;;;;;;;;;;;;9.43;61.38;95318.88;5031250;28;20016;-67
2022/11/14 05:25:00;;;;;;;;;;;;;;;9.44;61.20;95317.00;5031290;28;20006;-68
2022/11/14 05:27:25;;;;;;;;;;;;;;;9.27;61.47;95317.56;5030670;28;20486;-67
2022/11/14 05:29:51;;;;;;;;;;;;;;;9.23;61.32;95312.03;5031198;28;20466;-67
2022/11/14 05:32:16;;;;;;;;;;;;;;;9.22;61.31;95313.09;5029880;28;20021;-69
2022/11/14 05:34:42;;;;;;;;;;;;;;;9.11;61.75;95314.34;5030891;28;20006;-68
2022/11/14 05:37:07;;;;;;;;;;;;;;;9.09;61.16;95321.81;5030363;28;20479;-67
2022/11/14 05:39:32;;;;;;;;;;;;;;;9.09;61.59;95313.84;5031234;28;20014;-67
2022/11/14 05:41:58;;;;;;;;;;;;;;;9.09;61.50;95321.81;5029598;28;20485;-67
2022/11/14 05:44:23;;;;;;;;;;;;;;;9.07;61.25;95316.78;5031015;28;20006;-67
2022/11/14 05:46:48;;;;;;;;;;;;;;;9.05;61.31;95318.16;5029650;28;20021;-67
2022/11/14 05:49:13;;;;;;;;;;;;;;;8.93;61.33;95318.59;5029361;28;20025;-67
2022/11/14 05:51:39;;;;;;;;;;;;;;;8.85;61.09;95325.34;5030855;28;20016;-67
2022/11/14 05:54:04;;;;;;;;;;;;;;;8.77;61.23;95335.81;5030680;28;20093;-66
2022/11/14 05:56:29;;;;;;;;;;;;;;;8.70;61.26;95348.63;5030367;28;20016;-69
2022/11/14 05:58:55;;;;;;;;;;;;;;;8.61;61.50;95345.06;5030198;28;20509;-69
2022/11/14 06:01:20;;;;;;;;;;;;;;;8.52;61.35;95340.38;5030564;28;20014;-67
2022/11/14 06:03:46;;;;;;;;;;;;;;;8.49;61.35;95340.94;5030603;28;20010;-67
2022/11/14 06:06:16;;;;;;;;;;;;;;;8.40;61.40;95336.59;5076796;22;20064;-67
2022/11/14 06:08:42;;;;;;;;;;;;;;;8.28;61.83;95343.03;5069882;28;20010;-66
2022/11/14 06:11:11;;;;;;;;;;;;;;;8.19;61.75;95350.06;5069513;28;20059;-67
2022/11/14 06:13:37;;;;;;;;;;;;;;;8.11;61.93;95349.88;5068773;28;20010;-66
2022/11/14 06:16:03;;;;;;;;;;;;;;;8.00;62.02;95359.81;5068687;28;20008;-66
2022/11/14 06:18:29;;;;;;;;;;;;;;;7.89;62.20;95366.28;5069776;28;20009;-66
2022/11/14 06:20:58;;;;;;;;;;;;;;;7.78;62.35;95365.59;5067420;28;20013;-65
2022/11/14 06:23:23;;;;;;;;;;;;;;;7.63;62.70;95369.19;5067702;28;20366;-66
2022/11/14 06:25:48;;;;;;;;;;;;;;;7.55;62.91;95365.28;5069732;28;20013;-69
2022/11/14 06:28:13;;;;;;;;;;;;;;;7.53;63.10;95369.28;5069877;28;20009;-65
2022/11/14 06:30:40;;;;;;;;;;;;;;;7.51;63.51;95376.69;5068387;28;20013;-66
2022/11/14 06:33:05;;;;;;;;;;;;;;;7.48;63.85;95369.31;5067081;28;20013;-64
2022/11/14 06:35:32;;;;;;;;;;;;;;;7.48;63.74;95371.97;5068137;28;20055;-64
2022/11/14 06:37:58;;;;;;;;;;;;;;;7.37;63.88;95371.28;5069888;28;20009;-64
2022/11/14 06:40:23;;;;;;;;;;;;;;;7.45;63.91;95377.81;5067915;28;20013;-64
2022/11/14 06:42:48;;;;;;;;;;;;;;;7.51;64.06;95364.25;5067538;28;20059;-64
2022/11/14 06:45:14;;;;;;;;;;;;;;;7.55;63.92;95375.06;5031300;28;20317;-64
2022/11/14 06:47:39;;;;;;;;;;;;;;;7.63;64.14;95371.84;5028013;28;20585;-64
2022/11/14 06:50:04;;;;;;;;;;;;;;;7.72;63.59;95370.13;5036322;28;20017;-66
2022/11/14 06:52:30;;;;;;;;;;;;;;;7.82;63.55;95374.56;5069239;28;20005;-64
2022/11/14 06:54:55;;;;;;;;;;;;;;;7.89;63.20;95367.06;5068869;28;20010;-64
2022/11/14 06:57:20;;;;;;;;;;;;;;;7.96;63.32;95364.88;5069223;28;20021;-65
2022/11/14 06:59:46;;;;;;;;;;;;;;;8.01;62.76;95369.34;5068432;28;20104;-64
2022/11/14 07:02:12;;;;;;;;;;;;;;;8.05;63.13;95373.00;5067506;28;20021;-65
2022/11/14 07:04:37;;;;;;;;;;;;;;;8.07;63.06;95361.03;5068308;28;20021;-65
2022/11/14 07:07:02;;;;;;;;;;;;;;;7.97;62.91;95369.09;5069300;28;20105;-64
2022/11/14 07:09:27;;;;;;;;;;;;;;;7.96;62.69;95372.81;5069324;28;20017;-65
2022/11/14 07:11:52;;;;;;;;;;;;;;;7.98;62.61;95367.22;5068468;28;20412;-64
2022/11/14 07:14:18;;;;;;;;;;;;;;;7.99;62.95;95363.53;5067923;28;20005;-64
2022/11/14 07:16:43;;;;;;;;;;;;;;;8.00;62.36;95352.66;5066299;28;20018;-65
2022/11/14 07:19:08;;;;;;;;;;;;;;;8.01;62.20;95362.16;5068970;28;20107;-64
2022/11/14 07:21:34;;;;;;;;;;;;;;;8.02;62.46;95362.97;5069295;28;20104;-65
2022/11/14 07:23:59;;;;;;;;;;;;;;;8.05;62.33;95362.41;5069359;28;20037;-64
2022/11/14 07:26:24;;;;;;;;;;;;;;;8.08;62.17;95361.81;5066426;28;20009;-64
2022/11/14 07:28:49;;;;;;;;;;;;;;;8.13;62.41;95355.69;5068250;28;20013;-64
2022/11/14 07:31:16;;;;;;;;;;;;;;;8.14;62.32;95359.91;5067945;28;20058;-65
2022/11/14 07:33:42;;;;;;;;;;;;;;;8.14;62.31;95360.72;5068126;28;20372;-64
2022/11/14 07:36:07;;;;;;;;;;;;;;;8.19;62.44;95363.31;5071764;28;20005;-64
2022/11/14 07:38:33;;;;;;;;;;;;;;;8.21;62.34;95358.50;5070715;28;20009;-65
2022/11/14 07:41:00;;;;;;;;;;;;;;;8.22;62.65;95362.72;5071616;28;20490;-64
2022/11/14 07:43:25;;;;;;;;;;;;;;;8.28;62.65;95368.75;5071530;28;20389;-64
2022/11/14 07:45:50;;;;;;;;;;;;;;;8.36;62.79;95356.75;5072554;28;20005;-64
2022/11/14 07:48:16;;;;;;;;;;;;;;;8.44;62.48;95361.44;5071400;28;20014;-64
2022/11/14 07:50:42;;;;;;;;;;;;;;;8.49;62.52;95362.16;5072943;28;20037;-65
2022/11/14 07:53:07;;;;;;;;;;;;;;;8.53;62.62;95354.44;5072725;28;20009;-64
2022/11/14 07:55:34;;;;;;;;;;;;;;;8.64;62.24;95355.09;5071247;28;20013;-64
2022/11/14 07:57:59;;;;;;;;;;;;;;;8.72;62.36;95359.75;5056844;28;20020;-64
2022/11/14 08:00:24;;;;;;;;;;;;;;;8.78;62.39;95356.75;5051516;28;20442;-64
2022/11/14 08:02:50;;;;;;;;;;;;;;;8.86;62.42;95357.97;5052385;28;20525;-64
2022/11/14 08:05:15;;;;;;;;;;;;;;;8.95;61.71;95350.13;5050946;28;20458;-64
2022/11/14 08:07:40;;;;;;;;;;;;;;;9.02;61.98;95345.28;5052742;28;20021;-64
2022/11/14 08:10:06;;;;;;;;;;;;;;;9.09;61.92;95346.47;5061633;28;20009;-64
2022/11/14 08:12:31;;;;;;;;;;;;;;;9.16;61.41;95340.78;5072496;28;20044;-65
2022/11/14 08:14:56;;;;;;;;;;;;;;;9.24;61.47;95336.69;5071984;28;20009;-65
2022/11/14 08:17:22;;;;;;;;;;;;;;;9.30;61.29;95332.88;5072451;28;20041;-65
2022/11/14 08:19:47;;;;;;;;;;;;;;;9.35;61.56;95328.28;5072446;28;20048;-63
2022/11/14 08:22:12;;;;;;;;;;;;;;;9.40;61.30;95334.56;5071340;28;20014;-64
2022/11/14 08:24:39;;;;;;;;;;;;;;;9.49;61.23;95330.19;5070686;28;20546;-65
2022/11/14 08:27:05;;;;;;;;;;;;;;;9.57;60.91;95319.69;5072109;28;20048;-63
2022/11/14 08:29:30;;;;;;;;;;;;;;;9.61;60.80;95327.84;5072382;28;20076;-65
2022/11/14 08:31:55;;;;;;;;;;;;;;;9.69;60.60;95327.16;5072276;28;20525;-65
2022/11/14 08:34:22;;;;;;;;;;;;;;;9.75;60.34;95322.56;5069614;28;20009;-65
2022/11/14 08:36:47;;;;;;;;;;;;;;;9.80;59.97;95312.63;5068730;28;20151;-65
2022/11/14 08:39:12;;;;;;;;;;;;;;;9.85;60.60;95317.06;5068532;28;20108;-64
2022/11/14 08:41:37;;;;;;;;;;;;;;;9.96;59.33;95322.97;5072263;28;20053;-64
2022/11/14 08:44:03;;;;;;;;;;;;;;;10.03;59.17;95318.03;5072068;28;20373;-64
2022/11/14 08:46:28;;;;;;;;;;;;;;;10.10;59.63;95311.25;5068913;28;20021;-64
2022/11/14 08:48:53;;;;;;;;;;;;;;;10.15;59.22;95310.38;5070529;28;20043;-63
2022/11/14 08:51:19;;;;;;;;;;;;;;;10.25;59.63;95310.19;5071708;28;20418;-64
2022/11/14 08:53:44;;;;;;;;;;;;;;;10.28;59.23;95322.88;5068904;28;20020;-63
2022/11/14 08:56:10;;;;;;;;;;;;;;;10.38;59.11;95327.19;5069973;28;20092;-63
2022/11/14 08:58:35;;;;;;;;;;;;;;;10.36;59.20;95335.47;5070134;28;20037;-64
2022/11/14 09:01:05;;;;;;;;;;;;;;;10.13;59.46;95339.09;5071514;28;20111;-63
2022/11/14 09:03:30;;;;;;;;;;;;;;;10.36;58.88;95332.81;5068387;28;20010;-65
2022/11/14 09:05:55;;;;;;;;;;;;;;;10.29;59.29;95337.75;5071108;28;20019;-65
2022/11/14 09:08:21;;;;;;;;;;;;;;;10.41;58.73;95316.75;5070514;28;20039;-65
2022/11/14 09:10:47;;;;;;;;;;;;;;;10.53;58.74;95316.25;5069952;28;20010;-65
2022/11/14 09:13:12;;;;;;;;;;;;;;;10.73;58.24;95316.91;5071614;28;20006;-66
2022/11/14 09:15:37;;;;;;;;;;;;;;;10.91;57.93;95314.09;5068146;28;20096;-65
2022/11/14 09:18:03;;;;;;;;;;;;;;;10.98;58.04;95321.63;5070070;28;20060;-65
2022/11/14 09:20:29;;;;;;;;;;;;;;;11.20;57.79;95324.31;5070078;28;20107;-65
2022/11/14 09:22:57;;;;;;;;;;;;;;;11.36;57.41;95322.09;5070062;28;20016;-66
2022/11/14 09:25:22;;;;;;;;;;;;;;;11.49;57.26;95323.09;5071093;28;20071;-66
2022/11/14 09:27:47;;;;;;;;;;;;;;;11.59;56.33;95319.38;5052003;28;20063;-66
2022/11/14 09:30:12;;;;;;;;;;;;;;;11.51;56.54;95320.88;5050981;28;20211;-66
2022/11/14 09:32:38;;;;;;;;;;;;;;;10.80;56.91;95312.75;5050353;28;20024;-66
2022/11/14 09:35:03;;;;;;;;;;;;;;;10.67;58.63;95316.22;5050906;28;20197;-66
2022/11/14 09:37:28;;;;;;;;;;;;;;;11.28;56.83;95314.03;5050468;28;20012;-66
2022/11/14 09:39:54;;;;;;;;;;;;;;;11.36;56.24;95327.41;5069598;28;20009;-66
2022/11/14 09:42:32;;;;;;;;;;;;;;;11.13;57.32;95328.50;5069455;28;20009;-66
2022/11/14 09:45:09;;;;;;;;;;;;;;;10.93;57.25;95333.19;5070384;28;20048;-66
2022/11/14 09:47:34;;;;;;;;;;;;;;;11.74;56.12;95327.00;5069448;28;20017;-66
2022/11/14 09:50:04;;;;;;;;;;;;;;;12.02;55.02;95340.16;5067067;28;20010;-66
2022/11/14 09:52:29;;;;;;;;;;;;;;;12.00;55.68;95335.13;5070765;28;20012;-66
2022/11/14 09:54:57;;;;;;;;;;;;;;;12.16;55.65;95335.50;5068853;28;20009;-66
2022/11/14 09:57:22;;;;;;;;;;;;;;;12.15;55.22;95340.03;5070515;28;20005;-67
2022/11/14 09:59:48;;;;;;;;;;;;;;;12.45;55.21;95333.09;5066562;28;20014;-65
2022/11/14 10:02:26;;;;;;;;;;;;;;;12.54;54.25;95338.44;5069071;28;20112;-65
2022/11/14 10:05:06;;;;;;;;;;;;;;;12.39;53.22;95334.31;5048972;28;20022;-66
2022/11/14 10:07:34;;;;;;;;;;;;;;;12.73;53.45;95335.47;5049651;28;20010;-65
2022/11/14 10:10:02;;;;;;;;;;;;;;;12.93;53.23;95340.19;5063491;28;20021;-65
2022/11/14 10:12:30;;;;;;;;;;;;;;;13.04;52.91;95343.34;5030916;28;20010;-66
2022/11/14 10:15:21;;;;;;;;;;;;;;;12.72;54.14;95336.56;5029233;28;20010;-67
2022/11/14 10:17:53;;;;;;;;;;;;;;;12.71;54.81;95338.47;5030926;28;20449;-67
2022/11/14 10:20:37;;;;;;;;;;;;;;;12.69;54.24;95335.34;5048992;28;20592;-70
2022/11/14 10:23:07;;;;;;;;;;;;;;;12.70;54.92;95336.13;5056647;28;20533;-70
2022/11/14 10:25:32;;;;;;;;;;;;;;;13.05;54.45;95342.28;5070367;28;20005;-67
2022/11/14 10:28:04;;;;;;;;;;;;;;;13.14;53.67;95343.03;5070380;28;20009;-66
2022/11/14 10:30:34;;;;;;;;;;;;;;;12.49;55.45;95338.59;5064925;28;20010;-69
2022/11/14 10:33:12;;;;;;;;;;;;;;;13.10;54.72;95343.97;5066187;28;20382;-69
2022/11/14 10:35:41;;;;;;;;;;;;;;;12.43;57.20;95343.25;5047664;28;20021;-67
2022/11/14 10:38:06;;;;;;;;;;;;;;;11.70;59.93;95334.00;5050439;28;20045;-67
2022/11/14 10:40:45;;;;;;;;;;;;;;;11.78;59.91;95330.63;5053456;28;20547;-68
2022/11/14 10:43:22;;;;;;;;;;;;;;;12.01;60.17;95330.59;5067446;28;20009;-66
2022/11/14 10:45:59;;;;;;;;;;;;;;;12.14;59.70;95335.03;5070308;28;20012;-67
2022/11/14 10:48:28;;;;;;;;;;;;;;;11.97;59.65;95347.19;5062912;28;20013;-67
2022/11/14 10:50:57;;;;;;;;;;;;;;;12.49;58.32;95335.91;5048194;28;20112;-67
2022/11/14 10:53:41;;;;;;;;;;;;;;;12.28;58.91;95346.34;5060132;28;20020;-66
2022/11/14 10:56:09;;;;;;;;;;;;;;;11.74;61.00;95352.84;5069734;28;20005;-67
2022/11/14 10:58:34;;;;;;;;;;;;;;;11.54;61.66;95357.59;5070027;28;20020;-66
2022/11/14 11:01:18;;;;;;;;;;;;;;;12.34;59.29;95355.03;5067857;28;20013;-69
2022/11/14 11:03:43;;;;;;;;;;;;;;;12.16;60.27;95354.16;5062114;28;20014;-68
2022/11/14 11:06:23;;;;;;;;;;;;;;;11.35;62.10;95368.44;5048874;28;20021;-68
2022/11/14 11:12:00;;;;;;;;;;;;;;;12.08;63.17;95368.25;5030918;28;20020;-67
2022/11/14 11:14:26;;;;;;;;;;;;;;;12.02;61.65;95372.13;5030074;28;20014;-68
2022/11/14 11:17:07;;;;;;;;;;;;;;;11.75;62.51;95375.75;5041972;28;20009;-68
2022/11/14 11:19:32;;;;;;;;;;;;;;;11.40;61.58;95368.31;5054265;28;20033;-65
2022/11/14 11:21:58;;;;;;;;;;;;;;;10.66;63.91;95378.50;5053229;28;20494;-70
2022/11/14 11:24:33;;;;;;;;;;;;;;;11.28;62.21;95389.38;5052987;28;20053;-65
2022/11/14 11:27:17;;;;;;;;;;;;;;;11.14;62.97;95399.28;5052140;28;20417;-65
2022/11/14 11:29:43;;;;;;;;;;;;;;;10.27;65.67;95413.56;5036783;28;20541;-64
2022/11/14 11:32:08;;;;;;;;;;;;;;;10.66;64.57;95413.09;5038825;28;20021;-65
2022/11/14 11:34:34;;;;;;;;;;;;;;;10.80;64.85;95407.72;5072588;28;20135;-65
2022/11/14 11:37:12;;;;;;;;;;;;;;;10.96;64.12;95402.91;5072177;28;20020;-65
2022/11/14 11:39:48;;;;;;;;;;;;;;;10.67;64.43;95412.00;5074039;28;20005;-66
2022/11/14 11:42:16;;;;;;;;;;;;;;;10.93;64.71;95413.03;5071521;28;20481;-67
2022/11/14 11:44:44;;;;;;;;;;;;;;;11.43;62.77;95420.97;5055192;28;20013;-67
2022/11/14 11:47:15;;;;;;;;;;;;;;;11.57;62.37;95418.28;5052191;28;20014;-68
2022/11/14 11:49:47;;;;;;;;;;;;;;;11.87;60.72;95419.41;5053205;28;20524;-68
2022/11/14 11:52:18;;;;;;;;;;;;;;;11.83;60.43;95404.34;5052239;28;20343;-67
2022/11/14 11:54:46;;;;;;;;;;;;;;;11.75;60.52;95407.72;5051965;28;20017;-68
2022/11/14 11:57:15;;;;;;;;;;;;;;;12.43;59.36;95407.28;5073227;28;20079;-70
2022/11/14 11:59:41;;;;;;;;;;;;;;;12.26;58.92;95411.78;5058198;28;20014;-67
2022/11/14 12:02:27;;;;;;;;;;;;;;;12.58;58.67;95406.09;5052355;28;20054;-67
2022/11/14 12:04:54;;;;;;;;;;;;;;;12.02;59.77;95404.13;5054432;28;20017;-66
2022/11/14 12:07:44;;;;;;;;;;;;;;;12.02;59.70;95402.25;5071741;28;20036;-65
2022/11/14 12:10:23;;;;;;;;;;;;;;;12.19;58.73;95404.22;5071774;28;20013;-66
2022/11/14 12:13:00;;;;;;;;;;;;;;;11.76;59.88;95403.94;5071267;28;20458;-66
2022/11/14 12:15:25;;;;;;;;;;;;;;;12.43;58.48;95401.94;5032955;28;20604;-67
2022/11/14 12:18:09;;;;;;;;;;;;;;;12.41;58.28;95400.69;5055994;28;20025;-66
2022/11/14 12:20:50;;;;;;;;;;;;;;;12.68;57.33;95402.34;5072974;28;20005;-67
2022/11/14 12:23:24;;;;;;;;;;;;;;;13.13;56.28;95405.56;5071853;28;20060;-67
2022/11/14 12:25:59;;;;;;;;;;;;;;;11.66;56.69;95328.50;5071243;28;20008;-68
2022/11/14 12:28:41;;;;;;;;;;;;;;;12.48;56.07;95411.69;5070619;28;20070;-68
2022/11/14 12:31:10;;;;;;;;;;;;;;;12.56;55.94;95410.16;5053188;28;20018;-67
2022/11/14 12:33:38;;;;;;;;;;;;;;;12.96;54.33;95419.69;5072598;28;20084;-66
2022/11/14 12:36:10;;;;;;;;;;;;;;;12.22;56.06;95419.59;5071082;28;20009;-67
2022/11/14 12:38:44;;;;;;;;;;;;;;;12.95;54.61;95423.47;5072536;28;20091;-66
2022/11/14 12:41:16;;;;;;;;;;;;;;;12.89;55.39;95424.69;5070414;28;20063;-66
2022/11/14 12:43:42;;;;;;;;;;;;;;;13.72;52.58;95421.16;5066551;28;20013;-65
2022/11/14 12:46:08;;;;;;;;;;;;;;;12.93;53.68;95425.63;5051100;28;20016;-67
2022/11/14 12:48:46;;;;;;;;;;;;;;;13.31;52.82;95424.28;5052629;28;20087;-67
2022/11/14 12:51:23;;;;;;;;;;;;;;;13.76;52.25;95424.75;5052282;28;20013;-67
2022/11/14 12:53:49;;;;;;;;;;;;;;;14.29;51.42;95420.88;5059545;28;20013;-66
2022/11/14 12:56:20;;;;;;;;;;;;;;;13.39;52.56;95429.66;5070869;28;20527;-67